Time;durP1;ratioP1;P1;durP2;ratioP2;P2;SDS_P1;SDS_P2;PMS_P1;PMS_P2;Temp;Humidity;BMP_temperature;BMP_pressure;BME280_temperature;BME280_humidity;BME280_pressure;Samples;Min_cycle;Max_cycle;Signal;HPM_P1;HPM_P2
2023/07/16 00:00:08;;;;;;;5.38;3.70;;;;;;;23.18;39.88;98755.78;2119373;27;20733;-84
2023/07/16 00:01:10;;;;;;;4.88;3.17;;;;;;;23.09;40.06;98749.00;2114020;27;20047;-84
2023/07/16 00:02:12;;;;;;;9.07;4.68;;;;;;;23.05;40.03;98753.25;2113264;27;20549;-83
2023/07/16 00:03:14;;;;;;;6.63;3.95;;;;;;;23.01;39.86;98748.53;2116139;27;20607;-84
2023/07/16 00:04:15;;;;;;;9.90;4.10;;;;;;;23.08;39.99;98750.09;2117497;27;20516;-83
2023/07/16 00:05:16;;;;;;;9.10;4.30;;;;;;;22.99;39.80;98750.66;2119796;27;20039;-83
2023/07/16 00:06:18;;;;;;;7.93;3.90;;;;;;;22.88;39.90;98738.69;2117841;27;21078;-83
2023/07/16 00:07:19;;;;;;;5.82;3.33;;;;;;;22.88;39.57;98744.91;2118540;27;20099;-84
2023/07/16 00:08:21;;;;;;;5.88;3.40;;;;;;;22.88;39.44;98747.63;2119016;27;21040;-85
2023/07/16 00:09:21;;;;;;;6.80;3.28;;;;;;;22.86;39.42;98741.63;2114329;27;20047;-83
2023/07/16 00:10:23;;;;;;;7.90;3.55;;;;;;;22.80;39.50;98747.94;2120206;27;20043;-83
2023/07/16 00:11:24;;;;;;;10.50;4.35;;;;;;;22.74;39.56;98748.84;2112783;27;20054;-84
2023/07/16 00:12:25;;;;;;;8.10;4.38;;;;;;;22.67;39.41;98743.53;2118936;27;20115;-83
2023/07/16 00:13:27;;;;;;;9.60;3.88;;;;;;;22.73;39.23;98748.03;2116537;27;20035;-83
2023/07/16 00:14:28;;;;;;;8.60;4.00;;;;;;;22.69;38.93;98736.00;2118020;27;20050;-84
2023/07/16 00:15:29;;;;;;;6.95;3.53;;;;;;;22.60;38.99;98736.56;2118851;27;20062;-84
2023/07/16 00:16:32;;;;;;;6.75;3.40;;;;;;;22.59;39.21;98743.00;2118547;27;20050;-83
2023/07/16 00:17:33;;;;;;;9.65;3.92;;;;;;;22.55;39.22;98750.75;2117218;27;20047;-83
2023/07/16 00:18:35;;;;;;;8.70;3.85;;;;;;;22.48;38.98;98750.84;2117404;27;20443;-83
2023/07/16 00:19:36;;;;;;;9.63;4.45;;;;;;;22.84;39.17;98745.59;2117004;27;20043;-83
2023/07/16 00:20:38;;;;;;;9.23;3.42;;;;;;;23.29;38.28;98739.78;2117812;27;20130;-85
2023/07/16 00:21:39;;;;;;;6.30;4.22;;;;;;;23.68;38.28;98742.91;2115763;27;20130;-85
2023/07/16 00:22:40;;;;;;;8.88;3.58;;;;;;;23.97;38.28;98731.19;2118184;27;20040;-83
2023/07/16 00:23:41;;;;;;;7.40;4.07;;;;;;;24.23;38.62;98735.25;2117335;27;20126;-83
2023/07/16 00:24:43;;;;;;;6.15;3.88;;;;;;;24.44;38.31;98749.31;2118874;27;20474;-83
2023/07/16 00:25:44;;;;;;;6.32;3.55;;;;;;;24.59;38.63;98744.19;2118598;27;20052;-83
2023/07/16 00:26:46;;;;;;;8.05;4.32;;;;;;;24.73;38.88;98739.31;2119299;27;20054;-83
2023/07/16 00:27:47;;;;;;;8.27;3.83;;;;;;;24.84;38.68;98740.34;2117974;27;20050;-83
2023/07/16 00:28:48;;;;;;;5.15;3.55;;;;;;;24.96;38.71;98744.66;2118821;27;20130;-82
2023/07/16 00:29:49;;;;;;;7.88;4.30;;;;;;;24.88;41.59;98749.66;2118336;27;20050;-83
2023/07/16 00:30:51;;;;;;;9.80;4.18;;;;;;;24.56;41.69;98744.66;2120517;27;20079;-83
2023/07/16 00:31:53;;;;;;;7.93;3.75;;;;;;;24.35;42.30;98748.81;2117216;27;20051;-83
2023/07/16 00:32:55;;;;;;;6.72;3.67;;;;;;;24.08;42.94;98745.78;2115256;27;20558;-84
2023/07/16 00:33:56;;;;;;;5.93;3.47;;;;;;;23.96;42.94;98744.94;2106190;28;20070;-83
2023/07/16 00:34:58;;;;;;;6.85;4.43;;;;;;;23.88;43.25;98745.31;2110790;28;20099;-83
2023/07/16 00:35:59;;;;;;;7.10;3.80;;;;;;;23.85;43.30;98746.63;2109490;28;20047;-83
2023/07/16 00:37:01;;;;;;;8.68;4.32;;;;;;;23.73;43.64;98735.75;2106995;27;20051;-84
2023/07/16 00:38:02;;;;;;;5.90;3.78;;;;;;;23.66;43.98;98723.38;2112693;27;20058;-84
2023/07/16 00:39:05;;;;;;;7.95;4.80;;;;;;;23.64;44.16;98723.59;2119222;27;20043;-84
2023/07/16 00:40:08;;;;;;;6.63;3.60;;;;;;;23.68;44.21;98732.94;2117236;27;20853;-83
2023/07/16 00:41:09;;;;;;;8.82;3.58;;;;;;;23.65;44.47;98727.94;2116829;27;20039;-83
2023/07/16 00:42:10;;;;;;;8.07;5.07;;;;;;;23.72;44.52;98734.13;2118594;27;20035;-83
2023/07/16 00:43:15;;;;;;;6.80;3.58;;;;;;;23.68;44.78;98732.94;2114777;27;20092;-83
2023/07/16 00:44:15;;;;;;;8.18;3.25;;;;;;;23.66;45.10;98731.50;2114648;27;20580;-84
2023/07/16 00:45:17;;;;;;;10.93;5.05;;;;;;;23.68;45.17;98734.78;2095424;27;20051;-83
2023/07/16 00:46:18;;;;;;;5.97;4.00;;;;;;;23.64;45.34;98726.31;2107938;28;20052;-83
2023/07/16 00:47:22;;;;;;;8.43;4.10;;;;;;;23.64;45.89;98723.59;2109191;28;20421;-84
2023/07/16 00:48:24;;;;;;;8.35;3.65;;;;;;;23.68;45.48;98727.50;2109804;28;20071;-83
2023/07/16 00:49:25;;;;;;;7.38;4.32;;;;;;;23.66;45.82;98726.91;2117330;27;20084;-84
2023/07/16 00:50:26;;;;;;;9.10;3.97;;;;;;;23.66;45.77;98720.69;2112219;27;20036;-83
2023/07/16 00:51:30;;;;;;;7.13;4.03;;;;;;;23.71;46.08;98727.06;2111448;27;20043;-84
2023/07/16 00:52:32;;;;;;;8.52;4.00;;;;;;;23.62;46.05;98718.44;2115628;27;20066;-84
2023/07/16 00:53:34;;;;;;;6.65;3.55;;;;;;;23.65;46.20;98717.13;2118054;27;20047;-84
2023/07/16 00:54:35;;;;;;;8.30;3.80;;;;;;;23.67;46.26;98725.03;2116393;27;20046;-83
2023/07/16 00:55:38;;;;;;;9.73;4.03;;;;;;;23.62;46.44;98718.44;2118102;27;20133;-83
2023/07/16 00:56:38;;;;;;;9.70;4.32;;;;;;;23.61;46.28;98730.31;2117710;27;20059;-83
2023/07/16 00:57:40;;;;;;;4.70;3.40;;;;;;;23.62;46.55;98725.72;2115799;27;20039;-84
2023/07/16 00:58:41;;;;;;;5.15;3.35;;;;;;;23.63;46.66;98724.66;2117264;27;20039;-83
2023/07/16 00:59:44;;;;;;;6.05;3.78;;;;;;;23.58;46.53;98716.41;2118491;27;20505;-84
2023/07/16 01:00:45;;;;;;;9.57;4.93;;;;;;;23.55;46.34;98717.72;2114281;27;20059;-83
2023/07/16 01:01:46;;;;;;;6.00;4.20;;;;;;;23.57;46.50;98715.59;2117964;27;20501;-84
2023/07/16 01:02:49;;;;;;;7.35;3.75;;;;;;;23.54;46.43;98709.81;2118553;27;20050;-82
2023/07/16 01:03:51;;;;;;;8.10;4.18;;;;;;;23.60;46.53;98723.25;2119215;27;20062;-83
2023/07/16 01:04:52;;;;;;;5.75;4.13;;;;;;;23.55;46.29;98711.47;2117277;27;20106;-83
2023/07/16 01:06:00;;;;;;;5.57;3.60;;;;;;;23.59;46.78;98718.06;2117805;27;20448;-84
2023/07/16 01:07:06;;;;;;;6.00;3.67;;;;;;;23.59;46.82;98718.88;2118290;27;20055;-83
2023/07/16 01:08:11;;;;;;;7.18;3.72;;;;;;;23.52;46.75;98709.25;2117261;27;20074;-82
2023/07/16 01:09:18;;;;;;;5.60;3.90;;;;;;;23.51;46.65;98721.13;2117292;27;20689;-82
2023/07/16 01:10:20;;;;;;;6.75;3.85;;;;;;;23.50;46.69;98714.06;2117745;27;20042;-83
2023/07/16 01:11:22;;;;;;;5.28;3.70;;;;;;;23.55;46.50;98712.28;2118192;27;20049;-83
2023/07/16 01:12:25;;;;;;;6.55;3.65;;;;;;;23.53;46.40;98710.88;2117522;27;20103;-84
2023/07/16 01:13:27;;;;;;;5.95;3.13;;;;;;;23.52;46.53;98710.06;2118757;27;20046;-84
2023/07/16 01:14:29;;;;;;;6.68;3.75;;;;;;;23.55;46.44;98708.78;2108172;28;20058;-83
2023/07/16 01:15:31;;;;;;;5.47;3.97;;;;;;;23.50;46.36;98708.66;2109932;28;20524;-82
2023/07/16 01:16:32;;;;;;;7.72;3.75;;;;;;;23.50;46.31;98706.75;2104352;28;20050;-83
2023/07/16 01:17:34;;;;;;;9.15;4.22;;;;;;;23.52;46.02;98707.34;2109026;28;20517;-84
2023/07/16 01:18:36;;;;;;;11.95;4.28;;;;;;;23.45;46.19;98695.81;2107170;28;20063;-84
2023/07/16 01:19:38;;;;;;;6.03;3.72;;;;;;;23.49;46.28;98704.31;2106973;28;20043;-83
2023/07/16 01:20:39;;;;;;;6.18;3.72;;;;;;;23.46;45.63;98693.91;2109761;28;20028;-83
2023/07/16 01:21:47;;;;;;;8.88;5.22;;;;;;;23.32;44.55;98687.91;2109748;28;20044;-83
2023/07/16 01:23:22;;;;;;;5.15;3.30;;;;;;;23.10;44.24;98680.34;2109032;28;20055;-83
2023/07/16 01:25:00;;;;;;;6.13;3.33;;;;;;;22.91;43.82;98692.25;2110212;28;20123;-83
2023/07/16 01:26:25;;;;;;;5.38;3.00;;;;;;;22.82;43.46;98689.06;2112410;28;20054;-82
2023/07/16 01:28:00;;;;;;;7.25;4.40;;;;;;;22.84;43.01;98695.03;2117268;27;20047;-85
2023/07/16 01:29:28;;;;;;;7.40;3.45;;;;;;;22.59;42.69;98703.28;2109182;27;20043;-83
2023/07/16 01:30:31;;;;;;;9.38;3.85;;;;;;;22.68;42.29;98695.69;2115342;28;20696;-84
2023/07/16 01:31:34;;;;;;;9.27;3.13;;;;;;;22.56;42.41;98697.50;2118222;27;20090;-86
2023/07/16 01:32:38;;;;;;;10.50;3.15;;;;;;;23.01;42.14;98699.81;2114787;27;20552;-84
2023/07/16 01:33:42;;;;;;;11.15;4.50;;;;;;;23.41;41.28;98695.44;2117940;27;20059;-84
2023/07/16 01:34:44;;;;;;;9.00;3.58;;;;;;;23.76;41.34;98691.97;2106966;28;20047;-83
2023/07/16 01:35:47;;;;;;;7.10;3.42;;;;;;;24.05;40.99;98686.66;2118259;28;20073;-83
2023/07/16 01:36:50;;;;;;;4.97;3.45;;;;;;;24.28;41.08;98692.00;2118270;27;20043;-83
2023/07/16 01:37:51;;;;;;;5.93;3.42;;;;;;;24.47;40.89;98692.72;2119041;27;20051;-83
2023/07/16 01:38:53;;;;;;;4.97;3.38;;;;;;;24.60;40.92;98691.63;2117600;28;20053;-83
2023/07/16 01:39:55;;;;;;;6.13;3.20;;;;;;;24.72;41.63;98689.66;2119475;27;20047;-81
2023/07/16 01:40:57;;;;;;;6.10;3.30;;;;;;;24.83;41.18;98685.25;2117789;27;20042;-83
2023/07/16 01:41:58;;;;;;;11.20;3.85;;;;;;;24.93;41.08;98680.03;2118048;27;20134;-83
2023/07/16 01:42:59;;;;;;;6.53;3.90;;;;;;;24.92;46.48;98683.78;2118334;28;20051;-84
2023/07/16 01:44:00;;;;;;;6.38;3.50;;;;;;;24.69;45.98;98684.72;2116923;28;20044;-83
2023/07/16 01:45:04;;;;;;;6.93;3.90;;;;;;;24.34;45.43;98673.16;2119286;27;20122;-83
2023/07/16 01:46:05;;;;;;;7.80;4.28;;;;;;;24.07;44.40;98676.38;2113470;27;20590;-83
2023/07/16 01:47:10;;;;;;;6.60;3.58;;;;;;;23.74;44.29;98672.44;2117947;28;20046;-85
2023/07/16 01:48:22;;;;;;;8.77;4.70;;;;;;;23.54;43.94;98680.03;2116885;28;20058;-82
2023/07/16 01:49:24;;;;;;;6.22;3.20;;;;;;;23.38;43.52;98686.97;2118124;28;20047;-82
2023/07/16 01:50:25;;;;;;;7.90;3.65;;;;;;;23.23;43.23;98684.69;2118026;28;20039;-83
2023/07/16 01:51:27;;;;;;;5.68;3.67;;;;;;;23.19;43.07;98678.94;2111502;28;20081;-83
2023/07/16 01:52:28;;;;;;;5.20;3.45;;;;;;;22.96;42.50;98677.00;2117466;28;20036;-83
2023/07/16 01:53:29;;;;;;;6.20;3.45;;;;;;;22.91;42.28;98678.72;2110874;28;20164;-85
2023/07/16 01:54:31;;;;;;;8.50;3.17;;;;;;;22.91;42.11;98681.44;2118016;28;20109;-84
2023/07/16 01:55:32;;;;;;;7.47;3.25;;;;;;;22.90;41.56;98683.31;2118769;27;20051;-82
2023/07/16 01:56:34;;;;;;;7.47;3.72;;;;;;;22.77;41.53;98683.50;2119378;27;20104;-84
2023/07/16 01:57:35;;;;;;;6.15;3.55;;;;;;;22.74;41.37;98675.84;2118818;27;20051;-85
2023/07/16 01:58:36;;;;;;;5.78;3.22;;;;;;;22.78;41.54;98674.31;2118326;28;20049;-84
2023/07/16 01:59:37;;;;;;;5.82;3.10;;;;;;;23.20;40.95;98663.53;2118656;28;21122;-83
2023/07/16 02:00:41;;;;;;;5.88;3.40;;;;;;;23.62;40.65;98664.28;2118114;28;20482;-84
2023/07/16 02:01:42;;;;;;;7.63;3.75;;;;;;;23.96;40.47;98674.50;2116673;27;20074;-83
2023/07/16 02:02:44;;;;;;;7.18;3.90;;;;;;;24.22;40.24;98668.59;2115034;28;20046;-84
2023/07/16 02:03:45;;;;;;;7.25;3.72;;;;;;;24.40;40.42;98674.88;2118602;28;20047;-84
2023/07/16 02:04:46;;;;;;;8.13;3.33;;;;;;;24.58;40.42;98669.31;2118802;28;20051;-84
2023/07/16 02:05:48;;;;;;;5.32;3.35;;;;;;;24.70;40.56;98666.56;2115719;28;20103;-84
2023/07/16 02:06:50;;;;;;;6.90;3.65;;;;;;;24.82;40.73;98671.91;2118219;28;20055;-84
2023/07/16 02:07:51;;;;;;;4.63;3.28;;;;;;;24.89;40.63;98657.16;2118946;27;20047;-83
2023/07/16 02:08:52;;;;;;;5.20;3.15;;;;;;;24.98;43.17;98665.72;2120101;27;20134;-84
2023/07/16 02:09:53;;;;;;;8.50;3.67;;;;;;;24.90;45.65;98674.25;2120003;27;20051;-85
2023/07/16 02:10:55;;;;;;;7.72;3.67;;;;;;;24.57;44.12;98670.38;2120814;27;20042;-83
2023/07/16 02:11:56;;;;;;;4.88;3.20;;;;;;;24.24;44.78;98668.34;2120740;27;20441;-83
2023/07/16 02:12:58;;;;;;;8.90;4.18;;;;;;;24.06;45.91;98664.72;2120838;27;20044;-84
2023/07/16 02:13:58;;;;;;;5.32;3.63;;;;;;;23.96;46.10;98667.22;2121048;27;20129;-83
2023/07/16 02:15:00;;;;;;;5.72;3.85;;;;;;;23.94;46.62;98657.69;2121419;27;20047;-83
2023/07/16 02:16:03;;;;;;;5.78;3.67;;;;;;;23.93;46.56;98658.72;2120224;27;20043;-82
2023/07/16 02:17:06;;;;;;;6.03;3.75;;;;;;;23.93;46.83;98661.44;2121977;27;20046;-84
2023/07/16 02:18:07;;;;;;;6.60;4.13;;;;;;;23.91;46.97;98660.88;2117883;27;20043;-85
2023/07/16 02:19:08;;;;;;;7.78;3.13;;;;;;;23.90;47.43;98664.63;2120589;27;20365;-84
2023/07/16 02:20:10;;;;;;;7.13;4.03;;;;;;;23.86;47.53;98665.09;2122349;27;20083;-84
2023/07/16 02:21:12;;;;;;;6.10;2.95;;;;;;;23.84;47.57;98664.50;2122351;27;20039;-84
2023/07/16 02:22:13;;;;;;;5.88;3.47;;;;;;;23.84;47.96;98672.63;2120567;27;20051;-84
2023/07/16 02:23:14;;;;;;;6.15;3.38;;;;;;;23.81;48.14;98662.28;2116993;27;20057;-84
2023/07/16 02:24:16;;;;;;;4.88;3.20;;;;;;;23.79;48.05;98664.44;2121688;27;20074;-83
2023/07/16 02:25:17;;;;;;;5.95;4.00;;;;;;;23.79;48.42;98661.72;2122516;27;20122;-84
2023/07/16 02:26:19;;;;;;;5.18;3.28;;;;;;;23.81;48.24;98665.00;2121614;27;20039;-83
2023/07/16 02:27:20;;;;;;;4.63;3.72;;;;;;;23.82;48.57;98654.97;2115203;27;20086;-84
2023/07/16 02:28:22;;;;;;;4.65;4.07;;;;;;;23.86;48.36;98659.69;2113004;27;20043;-83
2023/07/16 02:29:23;;;;;;;4.18;3.45;;;;;;;23.88;48.40;98658.66;2114124;28;20051;-83
2023/07/16 02:30:25;;;;;;;6.90;3.28;;;;;;;23.90;48.62;98670.03;2119120;27;20131;-83
2023/07/16 02:31:27;;;;;;;8.20;3.88;;;;;;;23.80;48.89;98660.66;2121421;27;20046;-85
2023/07/16 02:32:29;;;;;;;4.93;3.83;;;;;;;23.85;48.94;98662.66;2121037;27;20047;-82
2023/07/16 02:33:30;;;;;;;5.15;4.10;;;;;;;23.82;49.09;98666.66;2122461;27;20441;-83
2023/07/16 02:34:31;;;;;;;11.60;4.68;;;;;;;23.84;49.00;98666.41;2118687;27;20051;-83
2023/07/16 02:35:32;;;;;;;4.43;3.33;;;;;;;23.85;48.91;98665.38;2122024;27;20035;-84
2023/07/16 02:36:33;;;;;;;6.45;3.75;;;;;;;23.80;49.27;98659.81;2122287;27;20051;-84
2023/07/16 02:37:35;;;;;;;6.95;3.78;;;;;;;23.83;48.94;98670.19;2119225;27;20054;-84
2023/07/16 02:38:35;;;;;;;5.18;3.58;;;;;;;23.78;49.26;98660.06;2120809;27;20063;-84
2023/07/16 02:39:39;;;;;;;6.22;3.65;;;;;;;23.72;49.10;98660.19;2121590;27;20650;-84
2023/07/16 02:40:43;;;;;;;7.25;3.28;;;;;;;23.69;49.43;98669.56;2120912;27;20181;-84
2023/07/16 02:41:45;;;;;;;7.07;4.45;;;;;;;23.72;49.14;98661.00;2117431;27;20051;-84
2023/07/16 02:42:45;;;;;;;7.05;3.78;;;;;;;23.75;48.86;98665.94;2119453;27;20047;-84
2023/07/16 02:43:47;;;;;;;6.03;3.85;;;;;;;23.74;49.18;98668.91;2120099;27;20504;-84
2023/07/16 02:44:48;;;;;;;4.80;2.78;;;;;;;23.71;49.05;98659.38;2118158;27;20066;-84
2023/07/16 02:45:50;;;;;;;10.27;3.65;;;;;;;23.73;48.66;98664.53;2118520;27;20057;-82
2023/07/16 02:46:52;;;;;;;7.57;4.20;;;;;;;23.68;49.06;98667.94;2120177;27;20126;-82
2023/07/16 02:47:53;;;;;;;7.57;3.13;;;;;;;23.67;48.65;98660.03;2117772;27;20082;-84
2023/07/16 02:48:55;;;;;;;8.45;3.58;;;;;;;23.74;48.79;98661.59;2118360;27;20782;-84
2023/07/16 02:49:55;;;;;;;7.78;3.53;;;;;;;23.71;48.71;98667.50;2118377;27;20047;-83
2023/07/16 02:50:57;;;;;;;10.30;5.10;;;;;;;23.69;48.82;98664.16;2120338;27;20043;-82
2023/07/16 02:51:58;;;;;;;6.53;3.42;;;;;;;23.65;48.96;98657.53;2117822;27;20043;-84
2023/07/16 02:53:00;;;;;;;4.85;2.72;;;;;;;23.62;48.94;98668.84;2118871;27;20043;-83
2023/07/16 02:54:01;;;;;;;6.93;3.63;;;;;;;23.62;48.95;98666.16;2119548;27;20067;-82
2023/07/16 02:55:03;;;;;;;6.90;3.53;;;;;;;23.59;48.69;98662.03;2116363;27;20418;-83
2023/07/16 02:56:04;;;;;;;6.97;2.88;;;;;;;23.62;48.98;98672.41;2114947;27;20059;-84
2023/07/16 02:57:06;;;;;;;5.53;4.30;;;;;;;23.57;48.84;98671.47;2119972;27;20420;-83
2023/07/16 02:58:07;;;;;;;4.78;3.33;;;;;;;23.60;48.68;98679.13;2116501;27;20047;-83
2023/07/16 02:59:10;;;;;;;5.65;2.97;;;;;;;23.59;48.64;98680.97;2118282;27;20467;-84
2023/07/16 03:00:11;;;;;;;6.72;3.58;;;;;;;23.62;48.61;98677.81;2120905;27;20043;-83
2023/07/16 03:01:13;;;;;;;4.13;2.97;;;;;;;23.59;48.81;98664.72;2119511;27;20420;-83
2023/07/16 03:02:15;;;;;;;7.50;3.53;;;;;;;23.59;48.71;98661.19;2119212;27;20039;-84
2023/07/16 03:03:17;;;;;;;10.23;4.57;;;;;;;23.56;48.91;98672.50;2119520;27;20485;-83
2023/07/16 03:04:18;;;;;;;5.50;3.50;;;;;;;23.53;48.60;98671.09;2118898;27;20043;-84
2023/07/16 03:05:20;;;;;;;7.43;4.07;;;;;;;23.53;48.66;98675.69;2116980;27;20509;-84
2023/07/16 03:06:21;;;;;;;4.70;3.38;;;;;;;23.57;48.81;98676.88;2117161;27;20095;-84
2023/07/16 03:07:22;;;;;;;7.93;3.80;;;;;;;23.54;48.69;98678.19;2119281;27;20077;-85
2023/07/16 03:08:26;;;;;;;6.55;3.33;;;;;;;23.49;48.75;98682.66;2118080;27;20742;-84
2023/07/16 03:09:27;;;;;;;4.85;3.42;;;;;;;23.44;48.66;98677.09;2115565;27;20062;-84
2023/07/16 03:10:29;;;;;;;5.20;4.07;;;;;;;23.50;48.42;98681.56;2122052;27;20054;-85
2023/07/16 03:11:29;;;;;;;5.15;3.20;;;;;;;23.45;48.40;98679.56;2119367;27;20040;-85
2023/07/16 03:12:31;;;;;;;6.55;3.70;;;;;;;23.47;48.92;98684.75;2119721;27;20043;-83
2023/07/16 03:13:32;;;;;;;6.25;3.88;;;;;;;23.44;48.51;98672.50;2120199;27;20095;-85
2023/07/16 03:14:34;;;;;;;6.97;3.17;;;;;;;23.48;48.15;98675.56;2119195;27;20058;-83
2023/07/16 03:15:35;;;;;;;8.38;5.22;;;;;;;23.46;48.35;98675.81;2118841;27;20135;-83
2023/07/16 03:16:36;;;;;;;7.60;3.47;;;;;;;23.35;47.85;98673.91;2119400;27;20043;-83
2023/07/16 03:17:39;;;;;;;3.58;3.15;;;;;;;23.29;46.79;98678.38;2120747;27;20053;-84
2023/07/16 03:18:41;;;;;;;7.25;3.75;;;;;;;23.17;46.12;98669.41;2119012;27;20066;-83
2023/07/16 03:19:41;;;;;;;4.80;3.60;;;;;;;23.11;45.63;98679.28;2117446;27;20052;-82
2023/07/16 03:20:43;;;;;;;7.00;3.15;;;;;;;22.97;44.92;98678.66;2120307;27;20061;-84
2023/07/16 03:21:45;;;;;;;5.88;3.92;;;;;;;22.89;44.85;98670.84;2117770;27;20506;-82
2023/07/16 03:22:47;;;;;;;4.78;3.20;;;;;;;23.28;44.71;98681.31;2117167;27;20051;-83
2023/07/16 03:23:48;;;;;;;5.65;3.30;;;;;;;23.60;44.06;98677.22;2117210;27;20143;-83
2023/07/16 03:24:49;;;;;;;6.57;3.40;;;;;;;23.90;43.78;98684.41;2115689;27;20066;-85
2023/07/16 03:25:51;;;;;;;4.15;2.85;;;;;;;24.17;43.87;98687.44;2117062;27;20046;-83
2023/07/16 03:26:51;;;;;;;5.28;3.28;;;;;;;24.36;43.64;98690.00;2119430;27;20687;-83
2023/07/16 03:27:53;;;;;;;8.10;4.55;;;;;;;24.52;43.42;98683.84;2115579;27;20047;-83
2023/07/16 03:28:55;;;;;;;5.00;3.58;;;;;;;24.65;43.85;98688.16;2118536;27;20051;-83
2023/07/16 03:29:57;;;;;;;6.00;3.50;;;;;;;24.71;43.39;98682.59;2119065;27;20055;-83
2023/07/16 03:30:57;;;;;;;5.20;3.20;;;;;;;24.84;43.56;98691.50;2118677;27;20119;-84
2023/07/16 03:31:59;;;;;;;3.90;2.38;;;;;;;24.91;44.07;98681.34;2118260;27;20047;-83
2023/07/16 03:33:01;;;;;;;8.70;3.03;;;;;;;24.87;49.05;98686.41;2116614;27;20597;-84
2023/07/16 03:34:03;;;;;;;4.90;3.95;;;;;;;24.63;47.20;98683.00;2118533;27;20085;-85
2023/07/16 03:35:05;;;;;;;6.00;3.25;;;;;;;24.35;46.54;98693.75;2118730;27;20517;-84
2023/07/16 03:36:07;;;;;;;6.97;3.67;;;;;;;24.04;45.79;98690.41;2118186;27;20039;-83
2023/07/16 03:37:08;;;;;;;3.25;2.92;;;;;;;23.74;44.84;98698.69;2117360;27;20095;-84
2023/07/16 03:38:10;;;;;;;5.63;3.55;;;;;;;23.49;45.12;98690.75;2118089;27;20109;-83
2023/07/16 03:39:11;;;;;;;4.45;2.97;;;;;;;23.24;44.97;98694.50;2119512;27;20060;-83
2023/07/16 03:40:14;;;;;;;4.13;3.30;;;;;;;23.11;43.86;98692.81;2119879;27;20097;-83
2023/07/16 03:41:16;;;;;;;5.45;3.35;;;;;;;22.99;44.14;98688.44;2115135;27;20084;-84
2023/07/16 03:42:17;;;;;;;5.22;2.88;;;;;;;22.97;43.20;98697.59;2116963;27;20071;-83
2023/07/16 03:43:18;;;;;;;5.88;3.08;;;;;;;23.34;43.53;98694.72;2117773;27;20050;-83
2023/07/16 03:44:20;;;;;;;5.93;3.03;;;;;;;23.69;42.86;98696.66;2118170;27;20043;-83
2023/07/16 03:45:21;;;;;;;6.40;3.50;;;;;;;23.99;42.33;98695.75;2117641;27;20039;-84
2023/07/16 03:46:23;;;;;;;6.28;3.25;;;;;;;24.23;42.43;98694.63;2118859;27;20539;-83
2023/07/16 03:47:23;;;;;;;8.73;4.15;;;;;;;24.46;42.27;98706.50;2119270;27;20055;-82
2023/07/16 03:48:27;;;;;;;3.88;2.58;;;;;;;24.62;42.43;98697.59;2119152;27;20406;-83
2023/07/16 03:49:27;;;;;;;5.22;3.00;;;;;;;24.74;42.06;98692.97;2116869;27;20073;-83
2023/07/16 03:50:29;;;;;;;7.28;3.85;;;;;;;24.85;42.67;98699.41;2120820;27;20035;-83
2023/07/16 03:51:30;;;;;;;6.60;3.03;;;;;;;24.93;42.51;98698.16;2118125;27;20070;-82
2023/07/16 03:52:32;;;;;;;5.53;2.63;;;;;;;25.00;42.34;98698.84;2119915;27;20513;-83
2023/07/16 03:53:33;;;;;;;7.35;3.65;;;;;;;25.01;47.60;98700.50;2119269;27;20074;-83
2023/07/16 03:54:35;;;;;;;3.90;3.05;;;;;;;24.77;45.88;98691.66;2119493;27;20047;-82
2023/07/16 03:55:36;;;;;;;4.45;2.85;;;;;;;24.44;45.12;98704.03;2119420;27;20050;-82
2023/07/16 03:56:38;;;;;;;4.43;3.03;;;;;;;23.95;45.19;98695.38;2115413;27;20051;-83
2023/07/16 03:57:39;;;;;;;4.55;3.17;;;;;;;23.62;44.49;98702.19;2118660;27;20554;-83
2023/07/16 03:58:40;;;;;;;3.22;2.58;;;;;;;23.48;44.55;98702.63;2113697;27;20096;-83
2023/07/16 03:59:42;;;;;;;4.78;3.30;;;;;;;23.38;44.06;98695.91;2118699;27;20062;-84
2023/07/16 04:00:44;;;;;;;4.75;3.08;;;;;;;23.32;43.46;98704.16;2119397;27;20549;-83
2023/07/16 04:01:46;;;;;;;6.38;3.40;;;;;;;23.16;43.24;98700.22;2120182;27;20051;-83
2023/07/16 04:02:47;;;;;;;6.05;3.47;;;;;;;23.09;42.72;98703.03;2118619;27;20506;-83
2023/07/16 04:03:50;;;;;;;6.22;3.13;;;;;;;23.22;42.78;98706.59;2118934;27;20047;-84
2023/07/16 04:04:51;;;;;;;4.85;2.95;;;;;;;23.65;42.29;98703.56;2119729;27;20043;-82
2023/07/16 04:05:53;;;;;;;6.32;3.03;;;;;;;23.96;42.08;98697.03;2119701;27;20052;-83
2023/07/16 04:06:54;;;;;;;5.25;2.88;;;;;;;24.21;41.86;98699.47;2115797;27;20686;-83
2023/07/16 04:07:56;;;;;;;4.65;2.83;;;;;;;24.44;41.97;98709.47;2114537;27;20052;-83
2023/07/16 04:08:56;;;;;;;4.75;3.17;;;;;;;24.62;42.04;98699.50;2119477;27;20115;-83
2023/07/16 04:09:58;;;;;;;6.57;3.03;;;;;;;24.77;41.67;98699.81;2118706;27;20104;-84
2023/07/16 04:10:59;;;;;;;4.47;2.50;;;;;;;24.89;42.35;98697.03;2119403;27;20058;-84
2023/07/16 04:12:00;;;;;;;7.50;2.70;;;;;;;24.97;42.47;98694.75;2119952;27;20054;-83
2023/07/16 04:13:01;;;;;;;5.40;3.00;;;;;;;25.07;42.39;98695.97;2119296;27;20039;-84
2023/07/16 04:14:02;;;;;;;7.00;3.05;;;;;;;24.95;44.38;98705.00;2118547;27;20039;-84
2023/07/16 04:15:08;;;;;;;5.82;3.65;;;;;;;24.59;44.28;98702.69;2118635;27;20083;-83
2023/07/16 04:16:09;;;;;;;4.65;2.97;;;;;;;24.30;44.77;98711.56;2116630;27;20126;-85
2023/07/16 04:17:11;;;;;;;3.88;3.05;;;;;;;24.04;45.12;98709.38;2119199;27;20043;-84
2023/07/16 04:18:12;;;;;;;5.53;3.40;;;;;;;23.84;45.41;98707.84;2119516;27;20035;-84
2023/07/16 04:19:15;;;;;;;6.10;3.00;;;;;;;23.79;45.61;98709.63;2117725;27;20096;-84
2023/07/16 04:20:16;;;;;;;4.95;3.95;;;;;;;23.71;45.89;98718.94;2117542;27;20092;-83
2023/07/16 04:21:17;;;;;;;6.70;3.30;;;;;;;23.60;46.13;98717.84;2117471;27;20533;-84
2023/07/16 04:22:18;;;;;;;5.88;3.58;;;;;;;23.67;46.02;98712.28;2118648;27;20043;-84
2023/07/16 04:23:20;;;;;;;5.43;3.30;;;;;;;23.64;46.35;98716.28;2117810;27;20043;-83
2023/07/16 04:24:21;;;;;;;4.35;2.92;;;;;;;23.55;46.42;98716.91;2118387;27;20150;-84
2023/07/16 04:25:23;;;;;;;4.82;2.78;;;;;;;23.53;46.51;98716.28;2113451;27;20042;-83
2023/07/16 04:26:24;;;;;;;3.65;3.00;;;;;;;23.51;46.32;98713.00;2118912;27;20068;-84
2023/07/16 04:27:26;;;;;;;3.50;2.83;;;;;;;23.52;46.50;98722.78;2117735;27;20095;-84
2023/07/16 04:28:27;;;;;;;6.82;3.35;;;;;;;23.50;46.79;98719.47;2119074;27;20046;-84
2023/07/16 04:29:29;;;;;;;5.97;3.53;;;;;;;23.43;46.79;98714.19;2117599;27;20059;-83
2023/07/16 04:30:30;;;;;;;5.03;3.00;;;;;;;23.47;46.71;98719.94;2116676;27;20647;-84
2023/07/16 04:31:31;;;;;;;5.65;3.33;;;;;;;23.48;46.88;98724.28;2118858;27;20054;-84
2023/07/16 04:32:32;;;;;;;5.00;3.00;;;;;;;23.44;47.00;98726.66;2119560;27;20609;-83
2023/07/16 04:33:34;;;;;;;4.32;3.05;;;;;;;23.42;47.13;98718.75;2118760;27;20055;-83
2023/07/16 04:34:36;;;;;;;5.97;3.55;;;;;;;23.42;47.04;98723.34;2118986;27;20047;-84
2023/07/16 04:35:37;;;;;;;6.80;3.20;;;;;;;23.41;47.15;98721.69;2118650;27;20058;-84
2023/07/16 04:36:39;;;;;;;5.78;3.08;;;;;;;23.38;47.32;98725.69;2118711;27;20097;-85
2023/07/16 04:37:40;;;;;;;10.15;3.72;;;;;;;23.36;47.39;98719.69;2118906;27;20095;-83
2023/07/16 04:38:41;;;;;;;4.63;3.10;;;;;;;23.39;47.04;98723.81;2108910;28;20093;-84
2023/07/16 04:39:42;;;;;;;4.38;3.15;;;;;;;23.33;47.45;98728.28;2110219;27;20116;-83
2023/07/16 04:40:44;;;;;;;5.85;3.78;;;;;;;23.32;47.43;98728.53;2109080;28;20448;-83
2023/07/16 04:41:45;;;;;;;4.32;2.97;;;;;;;23.31;47.43;98733.09;2108488;27;20040;-83
2023/07/16 04:42:46;;;;;;;4.18;2.63;;;;;;;23.27;45.78;98741.91;2107251;28;20050;-85
2023/07/16 04:43:47;;;;;;;3.58;2.63;;;;;;;23.12;45.29;98729.66;2109399;27;21241;-83
2023/07/16 04:44:49;;;;;;;6.20;3.40;;;;;;;23.04;44.86;98737.22;2119193;27;20413;-84
2023/07/16 04:45:50;;;;;;;6.63;3.45;;;;;;;23.19;44.72;98734.94;2119635;27;20134;-84
2023/07/16 04:46:51;;;;;;;4.55;3.25;;;;;;;23.54;44.66;98732.31;2118767;27;20130;-82
2023/07/16 04:47:52;;;;;;;3.78;2.97;;;;;;;23.81;44.06;98732.69;2118472;27;20043;-83
2023/07/16 04:48:54;;;;;;;3.47;3.03;;;;;;;24.06;44.01;98720.81;2118479;27;20417;-83
2023/07/16 04:49:58;;;;;;;3.72;3.20;;;;;;;24.29;43.70;98725.34;2117730;27;20054;-83
2023/07/16 04:51:00;;;;;;;4.00;3.13;;;;;;;24.44;43.71;98724.91;2116939;27;20075;-83
2023/07/16 04:52:01;;;;;;;4.55;3.17;;;;;;;24.57;43.69;98724.59;2118675;27;20460;-83
2023/07/16 04:53:02;;;;;;;5.70;2.70;;;;;;;24.67;43.80;98724.00;2118555;27;20046;-83